AirNav   BidForPlanes
 
airports navaids fix Aviation Fuel airboss pilotshop
   

KLNC Lancaster Airport
Lancaster, Texas, USA

GOING TO LANCASTER?

Reserve a HOTEL Rent a CAR Rent from ENTERPRISE

FAA INFORMATION EFFECTIVE 08 APRIL 2010

Location

FAA Identifier: LNC
Lat/Long: 32-34-45.0880N / 096-43-08.5840W
32-34.751467N / 096-43.143067W
32.5791911 / -96.7190511
(estimated)
Elevation: 501 ft. / 152.7 m (surveyed)
Variation: 06E (1990)
From city: 2 miles S of LANCASTER, TX
Time zone: UTC -5 (UTC -6 during Standard Time)
Zip code: 75146

Airport Operations

Airport use: Open to the public
Activation date: 08/1968
Sectional chart: DALLAS-FT WORTH
Control tower: no
ARTCC: FORT WORTH CENTER
FSS: FORT WORTH FLIGHT SERVICE STATION [817-541-3474]
NOTAMs facility: LNC (NOTAM-D service available)
Attendance: 0700-1900
Wind indicator: lighted
Segmented circle: yes
Lights: DUSK-DAWN
Beacon: white-green (lighted land airport)

Airport Communications

CTAF/UNICOM: 122.7
WX AWOS-3: 118.975 (972-227-0471)
REGIONAL APPROACH: 125.2 [1330-0530Z++ MON-THU; 1330-2330Z++ FRI; CLSD SAT;]
REGIONAL DEPARTURE: 125.2 [1330-0530Z++ MON-THU; 1330-2330Z++ FRI; CLSD SAT;]
WX ASOS at RBD (10 nm NW): PHONE 214-330-5317
WX AWOS-3 at JWY (12 nm SW): 119.575 (972-937-4747)
WX AWOS-3 at 49T (12 nm N): 135.425 (214-670-1243)
WX AWOS-3 at HQZ (14 nm NE): 118.175 (972-222-7631)
WX ASOS at DAL (17 nm NW): PHONE 214-904-0251
WX AWOS-3 at GPM (18 nm NW): 118.475 (972-606-1433)
WX ASOS at GKY (20 nm W): 127.375 (817-557-0251)

Nearby radio navigation aids

VOR radial/distance  VOR name  Freq  Var
CVEr147/20.9COWBOY VOR/DME116.2006E
TTTr131/23.8MAVERICK VOR/DME113.1006E
FUZr123/29.8RANGER VORTAC115.7006E
CQYr307/34.7CEDAR CREEK VORTAC114.8006E

 
NDB name  Hdg/Dist  Freq  Var  ID
LANCASTERat field23906ELNC .-.. -. -.-.
REDBIRD121/9.728706ERBD .-. -... -..
JECCA235/10.838806EJUG .--- ..- --.
CEDAR HILL085/13.035308EXQH -..- --.- ....
MESQUITE209/16.824806EPQF .--. --.- ..-.
TRAVIS239/26.126006EAVZ .- ...- --..
POWELL328/34.334406ECGQ -.-. --. --.-
CADDO MILLS215/36.531606EMII -- .. ..
CORSICANA328/36.939606ECRS -.-. .-. ...

Airport Services

Fuel available: 100LL JET-A
Parking: tiedowns
Airframe service: MAJOR
Powerplant service: MAJOR
Bottled oxygen: NONE
Bulk oxygen: NONE

Runway Information

Runway 13/31

Dimensions: 5000 x 100 ft. / 1524 x 30 m
Surface: asphalt, in good condition
Weight bearing capacity: 
Single wheel: 20.0
Double wheel: 40.0
Runway edge lights: medium intensity
RUNWAY 13  RUNWAY 31
Latitude: 32-35.068750N32-34.434267N
Longitude: 096-43.454533W096-42.832583W
Elevation: 500.7 ft.480.0 ft.
Gradient: 0.4%0.4%
Traffic pattern: leftright
Runway heading: 134 magnetic, 140 true314 magnetic, 320 true
Markings: nonprecision, in good conditionnonprecision, in good condition
Visual slope indicator: 2-light PAPI on left (3.50 degrees glide path)2-light PAPI on left (3.50 degrees glide path)
Runway end identifier lights: yes
Touchdown point: yes, no lightsyes, no lights
Obstructions: 35 ft. pole, 1350 ft. from runway, 370 ft. right of centerline, 32:1 slope to clearnone

Airport Ownership and Management from official FAA records

Ownership: Publicly-owned
Owner: CITY OF LANCASTER
PO BOX 940
LANCASTER, TX 75146
Phone 972-218-1305
Manager: ARB RYLANT
730 FERRIS ROAD STE 102
LANCASTER, TX 75146
Phone 972-227-5721
EMERGENCY PHONE: 469-245-6412.

Airport Operational Statistics

Aircraft based on the field: 128
Single engine airplanes: 89
Multi engine airplanes: 21
Jet airplanes: 10
Helicopters: 6
Gliders airplanes: 2
    
Aircraft operations: avg 184/day *
58% local general aviation
42% transient general aviation
<1% military
* for 12-month period ending 18 May 2007

Instrument Procedures

NOTE: All procedures below are presented as PDF files. If you need a reader for these files, you should download the free Adobe Reader.

NOT FOR NAVIGATION. Please procure official charts for flight.
FAA instrument procedures published for use between 8 April 2010 at 0901Z and 6 May 2010 at 0900Z.

 
STARs - Standard Terminal Arrivals
DODJE THREE   2 pages: [1] [2] (854KB)
FINGR THREE   2 pages: [1] [2] (564KB)
GREGS SIX   2 pages: [1] [2] (666KB)
KNEAD SIX   2 pages: [1] [2] (543KB)
 
IAPs - Instrument Approach Procedures
RNAV (GPS) RWY 31   download (208KB)
NDB RWY 31   download (183KB)
 
Departure Procedures
DALLAS NINE   2 pages: [1] [2] (548KB)
GARLAND THREE   2 pages: [1] [2] (355KB)
HUBBARD SIX   2 pages: [1] [2] (420KB)
JOE POOL FOUR   2 pages: [1] [2] (554KB)
KINGDOM SEVEN   2 pages: [1] [2] (425KB)
TEXOMA ONE   2 pages: [1] [2] (484KB)
WORTH FIVE   2 pages: [1] [2] (543KB)
NOTE: Special Take-Off Minimums/Departure Procedures apply   download (25KB)

Other nearby airports with instrument procedures:

KRBD - Dallas Executive Airport (10 nm NW)
KJWY - Mid-Way Regional Airport (12 nm SW)
KHQZ - Mesquite Metro Airport (14 nm NE)
F41 - Ennis Municipal Airport (15 nm S)
KDAL - Dallas Love Field Airport (17 nm NW)
KGPM - Grand Prairie Municipal Airport (18 nm NW)
KGKY - Arlington Municipal Airport (20 nm W)
 
Loc | Ops | Rwys | IFR | FBO | Links
Com | Nav | Svcs | Stats | Notes

ATP Flight Schools promo
 
Area around KLNC (Lancaster Airport)
 
Road maps at: MapQuest MapPoint Yahoo! Maps Google Rand McNally
Satellite photo at: TerraServer Virtual Earth

 
Aerial photo
WARNING: Photo may not be current or correct
Aerial photo of KLNC (Lancaster Airport)
Do you have a better or more recent aerial photo of Lancaster Airport that you would like to share? If so, please send us your photo.

 
Sectional chart

 
Airport distance calculator
Flying to Lancaster Airport? Find the distance to fly.

From to KLNC

Sunrise and sunset
Times for 03-May-2010
 Local
(UTC-5)
 Zulu
(UTC)
Morning civil twilight06:1311:13
Sunrise06:3911:39
Sunset20:0801:08
Evening civil twilight20:3501:35

Current date and time
Zulu (UTC)  03-May-2010 08:42:29
Local (UTC-5)  03-May-2010 03:42:29
 
METAR
KLNC 030806Z AUTO 00000KT 10SM CLR 14/09 A2982 RMK AO2 T01350093
KRBD 
10nm NW 
030753Z 20005KT 10SM CLR 17/05 A2981 RMK AO2 SLP089 T01670050
KJWY 
12nm SW 
030805Z AUTO 17003KT 10SM CLR 15/06 A2982 RMK AO2 T01450055
KHQZ 
14nm NE 
030810Z AUTO 16004KT 10SM CLR 12/09 A2983 RMK AO1
KDAL 
18nm N 
030753Z 13006KT 10SM CLR 16/08 A2981 RMK AO2 SLP089 T01610083
KGPM 
18nm NW 
030811Z AUTO 22004KT 10SM CLR 16/07 A2982 RMK AO2
KGKY 
20nm W 
030753Z AUTO 20004KT 10SM CLR 14/07 A2981 RMK AO2 SLP088 T01390067 $
TAF
KDAL 
18nm N 
030531Z 0306/0406 18006KT P6SM SKC FM031600 19010KT P6SM BKN080 FM032000 20010KT P6SM VCSH SCT060CB BKN080 FM040100 30010KT P6SM BKN120
NOTAMs
Click for the latest NOTAMs
NOTAMs are issued by the DoD/FAA and will open in a separate window not controlled by AirNav.

 

 
 

FBO, Fuel Providers, and Aircraft Ground Support

 Business Name   Contact    Services / Description  Fuel Prices Comments
 Lancaster Airport
UNICOM 122.70
972-227-5721
[web site]
[email]
Airport management, Aviation fuel, Aircraft parking (ramp or tiedown), Passenger terminal and lounge, Aircraft rental, Aircraft sales / leasing / brokerage, Catering, ...
 
AirBoss™ fuel program   WSI Pilotbrief   AVTRIP   Enterprise Rent-A-Car   Hertz   Wi-Fi ZONE   Wireless Internet Access  
 
More info about Lancaster Airport
Avfuel
100LL Jet A
FS $3.75 $3.20 
GUARANTEED
AirBossMEMBERS
ONLY
Discounts
LoginJoin
  12 read  write
FS=Full service
Update Fuel Prices
 

Where to Stay: Hotels, Motels, Resorts, B&Bs, Campgrounds

 In this space we feature lodging establishments that are convenient to the Lancaster Airport. If your hotel/inn/B&B/resort is near the Lancaster Airport, provides convenient transportation, or is otherwise attractive to pilots, flight crews, and airport users, consider listing it here.  
Feature A Hotel
 

Hotels near Lancaster Airport

Miles Price ($)
SUPER 8 HUTCHINS TX 4.9 51-72
LA QUINTA INN SUITES HUTCHINS 4.9 
RAMADA LTD DALLAS TX 5.7 50-102
DAYS INN DALLAS 5.9 64-65

Distances are approximate, and may vary depending on the actual route traveled and the location of the travel start on the airport.
    

Hotels in other cities near Lancaster Airport

3 in Lancaster
7 in De Soto
1 in Seagoville
4 in Duncanville
17 in Mesquite
140 in Dallas
8 in Waxahachie
1 in 
12 in Grand Prairie
 

Would you like to see your business listed on this page?

 If your business provides an interesting product or service to pilots, flight crews, aircraft, or users of the Lancaster Airport, you should consider listing it here.  To start the listing process, click on the button below
 
Add a business
 

Other Pages about Lancaster Airport

www.lancastermunicipalairport.com
 
Update a link
 
Copyright © AirNav, LLC. All rights reserved. Privacy Policy  Contact